sensor_id;sensor_type;location;lat;lon;timestamp;pressure;altitude;pressure_sealevel;temperature;humidity
30598;BME280;17365;48.878;8.334;2022-12-11T00:01:49;99604.28;;;-0.95;97.68
30598;BME280;17365;48.878;8.334;2022-12-11T00:04:14;99600.75;;;-0.98;99.41
30598;BME280;17365;48.878;8.334;2022-12-11T00:06:39;99606.16;;;-0.91;100.00
30598;BME280;17365;48.878;8.334;2022-12-11T00:09:05;99605.63;;;-0.82;100.00
30598;BME280;17365;48.878;8.334;2022-12-11T00:11:30;99602.69;;;-0.70;100.00
30598;BME280;17365;48.878;8.334;2022-12-11T00:13:56;99605.16;;;-0.72;100.00
30598;BME280;17365;48.878;8.334;2022-12-11T00:16:21;99605.69;;;-0.80;100.00
30598;BME280;17365;48.878;8.334;2022-12-11T00:18:46;99603.69;;;-0.67;100.00
30598;BME280;17365;48.878;8.334;2022-12-11T00:21:13;99601.94;;;-0.68;100.00
30598;BME280;17365;48.878;8.334;2022-12-11T00:23:39;99605.97;;;-0.50;100.00
30598;BME280;17365;48.878;8.334;2022-12-11T00:26:07;99601.88;;;-0.47;99.59
30598;BME280;17365;48.878;8.334;2022-12-11T00:28:34;99604.34;;;-0.48;100.00
30598;BME280;17365;48.878;8.334;2022-12-11T00:31:03;99607.09;;;-0.44;99.77
30598;BME280;17365;48.878;8.334;2022-12-11T00:33:28;99597.94;;;-0.61;100.00
30598;BME280;17365;48.878;8.334;2022-12-11T00:35:54;99608.88;;;-0.64;100.00
30598;BME280;17365;48.878;8.334;2022-12-11T00:38:20;99604.66;;;-0.41;100.00
30598;BME280;17365;48.878;8.334;2022-12-11T00:40:46;99602.81;;;-0.45;100.00
30598;BME280;17365;48.878;8.334;2022-12-11T00:43:12;99605.16;;;-0.49;100.00
30598;BME280;17365;48.878;8.334;2022-12-11T00:45:40;99610.09;;;-0.32;100.00
30598;BME280;17365;48.878;8.334;2022-12-11T00:48:08;99609.53;;;-0.23;100.00
30598;BME280;17365;48.878;8.334;2022-12-11T00:50:34;99610.09;;;-0.32;100.00
30598;BME280;17365;48.878;8.334;2022-12-11T00:53:00;99616.00;;;-0.33;100.00
30598;BME280;17365;48.878;8.334;2022-12-11T00:55:25;99612.81;;;-0.27;100.00
30598;BME280;17365;48.878;8.334;2022-12-11T00:57:53;99612.66;;;-0.32;99.55
30598;BME280;17365;48.878;8.334;2022-12-11T01:00:18;99617.41;;;-0.17;99.03
30598;BME280;17365;48.878;8.334;2022-12-11T01:02:44;99612.31;;;-0.17;99.11
30598;BME280;17365;48.878;8.334;2022-12-11T01:05:09;99610.44;;;-0.22;99.55
30598;BME280;17365;48.878;8.334;2022-12-11T01:07:35;99620.56;;;-0.24;99.85
30598;BME280;17365;48.878;8.334;2022-12-11T01:10:01;99617.56;;;-0.12;99.45
30598;BME280;17365;48.878;8.334;2022-12-11T01:12:45;99632.28;;;-0.29;100.00
30598;BME280;17365;48.878;8.334;2022-12-11T01:15:10;99634.75;;;-0.31;100.00
30598;BME280;17365;48.878;8.334;2022-12-11T01:17:36;99644.34;;;-0.23;99.27
30598;BME280;17365;48.878;8.334;2022-12-11T01:20:02;99646.50;;;-0.34;100.00
30598;BME280;17365;48.878;8.334;2022-12-11T01:22:28;99640.72;;;-0.52;100.00
30598;BME280;17365;48.878;8.334;2022-12-11T01:24:54;99645.31;;;-0.44;100.00
30598;BME280;17365;48.878;8.334;2022-12-11T01:27:19;99643.72;;;-0.18;98.80
30598;BME280;17365;48.878;8.334;2022-12-11T01:29:44;99650.25;;;-0.47;98.89
30598;BME280;17365;48.878;8.334;2022-12-11T01:32:10;99645.41;;;-0.41;99.53
30598;BME280;17365;48.878;8.334;2022-12-11T01:34:35;99642.22;;;-0.57;99.64
30598;BME280;17365;48.878;8.334;2022-12-11T01:37:00;99640.22;;;-0.66;100.00
30598;BME280;17365;48.878;8.334;2022-12-11T01:39:25;99635.38;;;-0.81;100.00
30598;BME280;17365;48.878;8.334;2022-12-11T01:41:56;99641.50;;;-0.55;100.00
30598;BME280;17365;48.878;8.334;2022-12-11T01:46:46;99644.66;;;-0.61;99.65
30598;BME280;17365;48.878;8.334;2022-12-11T01:49:13;99650.91;;;-0.75;99.06
30598;BME280;17365;48.878;8.334;2022-12-11T01:51:43;99663.97;;;-0.88;99.26
30598;BME280;17365;48.878;8.334;2022-12-11T01:54:12;99663.41;;;-0.59;99.58
30598;BME280;17365;48.878;8.334;2022-12-11T01:56:40;99651.06;;;-0.70;98.87
30598;BME280;17365;48.878;8.334;2022-12-11T01:59:08;99660.03;;;-0.57;98.70
30598;BME280;17365;48.878;8.334;2022-12-11T02:04:27;99659.00;;;-0.63;98.77
30598;BME280;17365;48.878;8.334;2022-12-11T02:06:53;99664.88;;;-0.86;99.42
30598;BME280;17365;48.878;8.334;2022-12-11T02:09:23;99664.88;;;-0.65;99.17
30598;BME280;17365;48.878;8.334;2022-12-11T02:12:15;99674.50;;;-0.79;99.37
30598;BME280;17365;48.878;8.334;2022-12-11T02:18:02;99674.16;;;-0.45;98.79
30598;BME280;17365;48.878;8.334;2022-12-11T02:21:00;99669.97;;;-0.65;98.35
30598;BME280;17365;48.878;8.334;2022-12-11T02:23:32;99667.41;;;-0.65;99.35
30598;BME280;17365;48.878;8.334;2022-12-11T02:28:55;99662.38;;;-0.64;98.25
30598;BME280;17365;48.878;8.334;2022-12-11T02:31:33;99667.03;;;-0.74;99.67
30598;BME280;17365;48.878;8.334;2022-12-11T02:34:09;99666.06;;;-0.78;100.00
30598;BME280;17365;48.878;8.334;2022-12-11T02:36:43;99667.00;;;-0.53;98.38
30598;BME280;17365;48.878;8.334;2022-12-11T02:39:11;99657.59;;;-0.56;98.85
30598;BME280;17365;48.878;8.334;2022-12-11T02:41:42;99662.28;;;-0.44;98.33
30598;BME280;17365;48.878;8.334;2022-12-11T02:44:10;99663.69;;;-1.15;100.00
30598;BME280;17365;48.878;8.334;2022-12-11T02:46:38;99666.38;;;-1.12;100.00
30598;BME280;17365;48.878;8.334;2022-12-11T02:49:05;99657.84;;;-0.71;100.00
30598;BME280;17365;48.878;8.334;2022-12-11T02:51:36;99666.25;;;-0.51;99.64
30598;BME280;17365;48.878;8.334;2022-12-11T02:54:04;99658.38;;;-0.57;99.15
30598;BME280;17365;48.878;8.334;2022-12-11T02:59:23;99662.03;;;-0.50;99.28
30598;BME280;17365;48.878;8.334;2022-12-11T03:01:49;99652.31;;;-0.38;98.10
30598;BME280;17365;48.878;8.334;2022-12-11T03:04:15;99647.22;;;-0.38;97.63
30598;BME280;17365;48.878;8.334;2022-12-11T03:06:45;99652.19;;;-0.64;97.97
30598;BME280;17365;48.878;8.334;2022-12-11T03:09:13;99655.41;;;-0.90;99.27
30598;BME280;17365;48.878;8.334;2022-12-11T03:11:38;99656.56;;;-1.03;99.73
30598;BME280;17365;48.878;8.334;2022-12-11T03:14:04;99650.84;;;-0.76;99.71
30598;BME280;17365;48.878;8.334;2022-12-11T03:16:37;99652.69;;;-0.93;100.00
30598;BME280;17365;48.878;8.334;2022-12-11T03:22:09;99652.97;;;-1.08;100.00
30598;BME280;17365;48.878;8.334;2022-12-11T03:29:54;99642.88;;;-0.84;99.81
30598;BME280;17365;48.878;8.334;2022-12-11T03:32:24;99647.16;;;-0.62;98.66
30598;BME280;17365;48.878;8.334;2022-12-11T03:35:12;99649.78;;;-0.81;98.59
30598;BME280;17365;48.878;8.334;2022-12-11T03:37:39;99649.63;;;-0.64;98.88
30598;BME280;17365;48.878;8.334;2022-12-11T03:40:09;99644.84;;;-0.56;98.66
30598;BME280;17365;48.878;8.334;2022-12-11T03:42:37;99642.97;;;-0.60;98.00
30598;BME280;17365;48.878;8.334;2022-12-11T03:45:04;99640.16;;;-0.68;98.38
30598;BME280;17365;48.878;8.334;2022-12-11T03:47:31;99649.09;;;-0.77;98.48
30598;BME280;17365;48.878;8.334;2022-12-11T03:49:58;99646.13;;;-0.67;98.71
30598;BME280;17365;48.878;8.334;2022-12-11T03:52:26;99648.53;;;-0.91;98.74
30598;BME280;17365;48.878;8.334;2022-12-11T03:54:55;99636.81;;;-1.08;100.00
30598;BME280;17365;48.878;8.334;2022-12-11T03:57:28;99638.56;;;-1.07;100.00
30598;BME280;17365;48.878;8.334;2022-12-11T03:59:55;99645.94;;;-0.93;99.01
30598;BME280;17365;48.878;8.334;2022-12-11T04:02:20;99647.13;;;-1.05;100.00
30598;BME280;17365;48.878;8.334;2022-12-11T04:04:46;99640.19;;;-1.09;100.00
30598;BME280;17365;48.878;8.334;2022-12-11T04:07:11;99643.47;;;-1.12;99.97
30598;BME280;17365;48.878;8.334;2022-12-11T04:09:36;99641.06;;;-1.09;100.00
30598;BME280;17365;48.878;8.334;2022-12-11T04:12:02;99641.75;;;-1.13;100.00
30598;BME280;17365;48.878;8.334;2022-12-11T04:14:27;99638.94;;;-0.98;100.00
30598;BME280;17365;48.878;8.334;2022-12-11T04:17:11;99630.16;;;-0.84;100.00
30598;BME280;17365;48.878;8.334;2022-12-11T04:19:36;99623.00;;;-0.72;99.41
30598;BME280;17365;48.878;8.334;2022-12-11T04:22:20;99620.50;;;-0.70;99.53
30598;BME280;17365;48.878;8.334;2022-12-11T04:25:24;99627.34;;;-1.33;100.00
30598;BME280;17365;48.878;8.334;2022-12-11T04:27:49;99629.31;;;-1.47;100.00
30598;BME280;17365;48.878;8.334;2022-12-11T04:30:18;99629.25;;;-1.28;100.00
30598;BME280;17365;48.878;8.334;2022-12-11T04:32:43;99634.16;;;-1.32;100.00
30598;BME280;17365;48.878;8.334;2022-12-11T04:35:10;99630.44;;;-1.20;100.00
30598;BME280;17365;48.878;8.334;2022-12-11T04:37:37;99626.53;;;-1.11;100.00
30598;BME280;17365;48.878;8.334;2022-12-11T04:40:04;99635.72;;;-1.36;100.00
30598;BME280;17365;48.878;8.334;2022-12-11T04:42:30;99623.91;;;-1.55;100.00
30598;BME280;17365;48.878;8.334;2022-12-11T04:44:55;99633.63;;;-1.65;100.00
30598;BME280;17365;48.878;8.334;2022-12-11T04:47:21;99634.94;;;-1.54;100.00
30598;BME280;17365;48.878;8.334;2022-12-11T04:49:46;99629.66;;;-1.59;100.00
30598;BME280;17365;48.878;8.334;2022-12-11T04:52:11;99636.03;;;-1.68;100.00
30598;BME280;17365;48.878;8.334;2022-12-11T04:54:36;99634.44;;;-1.66;100.00
30598;BME280;17365;48.878;8.334;2022-12-11T04:57:02;99634.38;;;-1.68;100.00
30598;BME280;17365;48.878;8.334;2022-12-11T04:59:27;99629.84;;;-1.54;100.00
30598;BME280;17365;48.878;8.334;2022-12-11T05:01:53;99632.75;;;-1.66;100.00
30598;BME280;17365;48.878;8.334;2022-12-11T05:04:18;99636.28;;;-1.82;100.00
30598;BME280;17365;48.878;8.334;2022-12-11T05:06:44;99629.47;;;-1.63;100.00
30598;BME280;17365;48.878;8.334;2022-12-11T05:09:10;99622.31;;;-1.72;100.00
30598;BME280;17365;48.878;8.334;2022-12-11T05:11:36;99622.56;;;-1.47;100.00
30598;BME280;17365;48.878;8.334;2022-12-11T05:14:01;99625.38;;;-1.60;100.00
30598;BME280;17365;48.878;8.334;2022-12-11T05:16:27;99624.91;;;-1.30;100.00
30598;BME280;17365;48.878;8.334;2022-12-11T05:18:53;99632.81;;;-1.24;100.00
30598;BME280;17365;48.878;8.334;2022-12-11T05:21:18;99627.63;;;-1.05;100.00
30598;BME280;17365;48.878;8.334;2022-12-11T05:23:43;99626.97;;;-1.22;100.00
30598;BME280;17365;48.878;8.334;2022-12-11T05:26:14;99622.03;;;-0.96;100.00
30598;BME280;17365;48.878;8.334;2022-12-11T05:28:41;99628.59;;;-1.24;100.00
30598;BME280;17365;48.878;8.334;2022-12-11T05:31:11;99620.06;;;-1.03;100.00
30598;BME280;17365;48.878;8.334;2022-12-11T05:33:37;99622.94;;;-0.73;100.00
30598;BME280;17365;48.878;8.334;2022-12-11T05:36:02;99611.16;;;-0.92;100.00
30598;BME280;17365;48.878;8.334;2022-12-11T05:38:28;99615.81;;;-1.03;100.00
30598;BME280;17365;48.878;8.334;2022-12-11T05:40:57;99614.56;;;-0.92;100.00
30598;BME280;17365;48.878;8.334;2022-12-11T05:43:23;99619.66;;;-0.92;100.00
30598;BME280;17365;48.878;8.334;2022-12-11T05:45:48;99602.63;;;-0.72;99.61
30598;BME280;17365;48.878;8.334;2022-12-11T05:48:13;99603.63;;;-0.91;100.00
30598;BME280;17365;48.878;8.334;2022-12-11T05:50:38;99609.38;;;-1.15;100.00
30598;BME280;17365;48.878;8.334;2022-12-11T05:53:04;99602.72;;;-0.91;100.00
30598;BME280;17365;48.878;8.334;2022-12-11T05:55:33;99599.38;;;-0.90;98.94
30598;BME280;17365;48.878;8.334;2022-12-11T05:57:58;99603.38;;;-0.74;99.14
30598;BME280;17365;48.878;8.334;2022-12-11T06:00:24;99600.94;;;-0.71;98.86
30598;BME280;17365;48.878;8.334;2022-12-11T06:02:49;99602.06;;;-0.65;98.56
30598;BME280;17365;48.878;8.334;2022-12-11T06:05:14;99602.97;;;-0.85;98.58
30598;BME280;17365;48.878;8.334;2022-12-11T06:07:39;99604.50;;;-1.11;99.99
30598;BME280;17365;48.878;8.334;2022-12-11T06:10:05;99594.03;;;-0.96;99.56
30598;BME280;17365;48.878;8.334;2022-12-11T06:12:31;99584.88;;;-0.91;100.00
30598;BME280;17365;48.878;8.334;2022-12-11T06:14:56;99590.94;;;-0.89;99.59
30598;BME280;17365;48.878;8.334;2022-12-11T06:17:22;99589.31;;;-0.87;99.95
30598;BME280;17365;48.878;8.334;2022-12-11T06:19:47;99585.44;;;-1.00;99.55
30598;BME280;17365;48.878;8.334;2022-12-11T06:22:13;99582.69;;;-0.82;99.60
30598;BME280;17365;48.878;8.334;2022-12-11T06:24:38;99589.78;;;-1.18;100.00
30598;BME280;17365;48.878;8.334;2022-12-11T06:27:03;99587.59;;;-1.09;100.00
30598;BME280;17365;48.878;8.334;2022-12-11T06:29:29;99591.34;;;-0.78;99.11
30598;BME280;17365;48.878;8.334;2022-12-11T06:31:54;99591.63;;;-0.71;98.14
30598;BME280;17365;48.878;8.334;2022-12-11T06:34:19;99592.88;;;-0.82;98.76
30598;BME280;17365;48.878;8.334;2022-12-11T06:36:44;99588.09;;;-0.74;98.96
30598;BME280;17365;48.878;8.334;2022-12-11T06:39:10;99587.53;;;-0.67;98.22
30598;BME280;17365;48.878;8.334;2022-12-11T06:41:36;99590.47;;;-1.01;99.67
30598;BME280;17365;48.878;8.334;2022-12-11T06:44:01;99592.66;;;-0.88;99.54
30598;BME280;17365;48.878;8.334;2022-12-11T06:46:27;99590.66;;;-1.18;99.18
30598;BME280;17365;48.878;8.334;2022-12-11T06:48:52;99586.69;;;-1.11;100.00
30598;BME280;17365;48.878;8.334;2022-12-11T06:51:20;99593.50;;;-1.10;100.00
30598;BME280;17365;48.878;8.334;2022-12-11T06:53:53;99597.41;;;-0.97;99.58
30598;BME280;17365;48.878;8.334;2022-12-11T06:56:19;99599.69;;;-1.03;100.00
30598;BME280;17365;48.878;8.334;2022-12-11T06:58:45;99602.25;;;-0.81;99.37
30598;BME280;17365;48.878;8.334;2022-12-11T07:01:19;99596.13;;;-0.86;99.28
30598;BME280;17365;48.878;8.334;2022-12-11T07:03:46;99603.94;;;-0.81;99.38
30598;BME280;17365;48.878;8.334;2022-12-11T07:06:11;99606.16;;;-0.91;99.41
30598;BME280;17365;48.878;8.334;2022-12-11T07:08:37;99610.09;;;-0.76;99.41
30598;BME280;17365;48.878;8.334;2022-12-11T07:11:07;99604.25;;;-0.74;98.51
30598;BME280;17365;48.878;8.334;2022-12-11T07:13:33;99598.59;;;-0.67;98.20
30598;BME280;17365;48.878;8.334;2022-12-11T07:15:59;99596.03;;;-0.67;98.07
30598;BME280;17365;48.878;8.334;2022-12-11T07:18:27;99599.41;;;-0.68;98.24
30598;BME280;17365;48.878;8.334;2022-12-11T07:20:52;99595.44;;;-0.82;98.77
30598;BME280;17365;48.878;8.334;2022-12-11T07:23:17;99594.69;;;-1.02;98.39
30598;BME280;17365;48.878;8.334;2022-12-11T07:25:43;99602.53;;;-0.96;99.39
30598;BME280;17365;48.878;8.334;2022-12-11T07:28:08;99604.34;;;-0.93;99.93
30598;BME280;17365;48.878;8.334;2022-12-11T07:30:33;99604.53;;;-0.89;99.90
30598;BME280;17365;48.878;8.334;2022-12-11T07:32:59;99608.44;;;-0.97;100.00
30598;BME280;17365;48.878;8.334;2022-12-11T07:35:24;99605.50;;;-0.85;98.94
30598;BME280;17365;48.878;8.334;2022-12-11T07:37:49;99609.38;;;-0.95;99.17
30598;BME280;17365;48.878;8.334;2022-12-11T07:40:15;99603.88;;;-0.83;98.60
30598;BME280;17365;48.878;8.334;2022-12-11T07:42:40;99600.84;;;-0.74;98.49
30598;BME280;17365;48.878;8.334;2022-12-11T07:45:06;99602.91;;;-0.86;99.28
30598;BME280;17365;48.878;8.334;2022-12-11T07:47:32;99594.69;;;-0.79;98.49
30598;BME280;17365;48.878;8.334;2022-12-11T07:49:58;99598.78;;;-0.83;97.96
30598;BME280;17365;48.878;8.334;2022-12-11T07:52:23;99603.72;;;-0.88;98.32
30598;BME280;17365;48.878;8.334;2022-12-11T07:54:48;99604.53;;;-0.89;98.67
30598;BME280;17365;48.878;8.334;2022-12-11T07:57:14;99599.28;;;-0.92;98.70
30598;BME280;17365;48.878;8.334;2022-12-11T07:59:39;99613.16;;;-0.85;97.94
30598;BME280;17365;48.878;8.334;2022-12-11T08:02:05;99607.50;;;-0.78;98.03
30598;BME280;17365;48.878;8.334;2022-12-11T08:04:31;99605.06;;;-0.52;97.36
30598;BME280;17365;48.878;8.334;2022-12-11T08:06:56;99609.03;;;-0.37;96.24
30598;BME280;17365;48.878;8.334;2022-12-11T08:09:23;99607.56;;;-0.54;96.00
30598;BME280;17365;48.878;8.334;2022-12-11T08:11:49;99605.69;;;-0.12;95.39
30598;BME280;17365;48.878;8.334;2022-12-11T08:14:15;99601.97;;;-0.21;94.73
30598;BME280;17365;48.878;8.334;2022-12-11T08:16:40;99606.84;;;-0.04;94.33
30598;BME280;17365;48.878;8.334;2022-12-11T08:19:07;99614.31;;;-0.32;94.37
30598;BME280;17365;48.878;8.334;2022-12-11T08:21:32;99618.03;;;0.00;94.61
30598;BME280;17365;48.878;8.334;2022-12-11T08:23:58;99616.19;;;0.20;94.27
30598;BME280;17365;48.878;8.334;2022-12-11T08:26:28;99613.56;;;0.18;94.01
30598;BME280;17365;48.878;8.334;2022-12-11T08:28:54;99621.28;;;0.20;93.07
30598;BME280;17365;48.878;8.334;2022-12-11T08:31:20;99624.03;;;-0.22;94.49
30598;BME280;17365;48.878;8.334;2022-12-11T08:33:46;99627.47;;;-0.21;95.04
30598;BME280;17365;48.878;8.334;2022-12-11T08:36:17;99626.13;;;-0.34;95.38
30598;BME280;17365;48.878;8.334;2022-12-11T08:38:43;99622.66;;;-0.59;97.02
30598;BME280;17365;48.878;8.334;2022-12-11T08:41:17;99615.78;;;-0.15;96.00
30598;BME280;17365;48.878;8.334;2022-12-11T08:43:42;99618.16;;;0.03;94.95
30598;BME280;17365;48.878;8.334;2022-12-11T08:46:09;99613.56;;;0.18;93.72
30598;BME280;17365;48.878;8.334;2022-12-11T08:48:36;99617.91;;;0.21;93.82
30598;BME280;17365;48.878;8.334;2022-12-11T08:51:04;99612.72;;;0.18;94.20
30598;BME280;17365;48.878;8.334;2022-12-11T08:53:30;99607.59;;;0.18;93.65
30598;BME280;17365;48.878;8.334;2022-12-11T08:56:00;99609.56;;;0.25;93.26
30598;BME280;17365;48.878;8.334;2022-12-11T08:58:26;99603.72;;;0.04;93.05
30598;BME280;17365;48.878;8.334;2022-12-11T09:00:51;99608.56;;;0.21;93.66
30598;BME280;17365;48.878;8.334;2022-12-11T09:03:16;99606.59;;;0.13;93.56
30598;BME280;17365;48.878;8.334;2022-12-11T09:05:42;99598.38;;;0.21;92.46
30598;BME280;17365;48.878;8.334;2022-12-11T09:08:07;99610.69;;;0.09;92.94
30598;BME280;17365;48.878;8.334;2022-12-11T09:10:32;99603.84;;;0.32;92.95
30598;BME280;17365;48.878;8.334;2022-12-11T09:12:57;99599.09;;;0.43;92.33
30598;BME280;17365;48.878;8.334;2022-12-11T09:15:23;99587.44;;;0.24;92.97
30598;BME280;17365;48.878;8.334;2022-12-11T09:17:48;99599.09;;;0.43;93.04
30598;BME280;17365;48.878;8.334;2022-12-11T09:20:13;99590.63;;;0.18;92.89
30598;BME280;17365;48.878;8.334;2022-12-11T09:22:39;99590.38;;;0.62;92.35
30598;BME280;17365;48.878;8.334;2022-12-11T09:25:07;99581.69;;;0.56;92.03
30598;BME280;17365;48.878;8.334;2022-12-11T09:27:33;99592.22;;;0.66;90.97
30598;BME280;17365;48.878;8.334;2022-12-11T09:29:58;99589.16;;;0.25;93.53
30598;BME280;17365;48.878;8.334;2022-12-11T09:32:23;99590.13;;;0.54;92.50
30598;BME280;17365;48.878;8.334;2022-12-11T09:34:50;99586.06;;;0.59;92.69
30598;BME280;17365;48.878;8.334;2022-12-11T09:37:15;99586.94;;;0.60;92.22
30598;BME280;17365;48.878;8.334;2022-12-11T09:39:41;99583.47;;;0.57;92.81
30598;BME280;17365;48.878;8.334;2022-12-11T09:45:04;99580.09;;;0.85;91.90
30598;BME280;17365;48.878;8.334;2022-12-11T09:47:43;99578.03;;;0.74;91.03
30598;BME280;17365;48.878;8.334;2022-12-11T09:50:12;99577.41;;;0.55;92.17
30598;BME280;17365;48.878;8.334;2022-12-11T09:55:38;99575.22;;;0.15;95.78
30598;BME280;17365;48.878;8.334;2022-12-11T10:00:58;99569.94;;;0.11;96.11
30598;BME280;17365;48.878;8.334;2022-12-11T10:06:32;99567.25;;;0.06;97.12
30598;BME280;17365;48.878;8.334;2022-12-11T10:09:21;99554.97;;;0.20;96.44
30598;BME280;17365;48.878;8.334;2022-12-11T10:12:13;99563.66;;;0.25;96.08
30598;BME280;17365;48.878;8.334;2022-12-11T10:15:19;99554.56;;;0.33;95.93
30598;BME280;17365;48.878;8.334;2022-12-11T10:17:48;99539.09;;;0.54;95.64
30598;BME280;17365;48.878;8.334;2022-12-11T10:22:51;99536.44;;;0.78;93.55
30598;BME280;17365;48.878;8.334;2022-12-11T10:25:27;99531.47;;;0.81;93.03
30598;BME280;17365;48.878;8.334;2022-12-11T10:27:54;99535.63;;;0.79;93.43
30598;BME280;17365;48.878;8.334;2022-12-11T10:30:24;99532.78;;;0.43;94.45
30598;BME280;17365;48.878;8.334;2022-12-11T10:32:53;99526.88;;;0.18;95.52
30598;BME280;17365;48.878;8.334;2022-12-11T10:35:41;99529.13;;;0.62;94.78
30598;BME280;17365;48.878;8.334;2022-12-11T10:40:42;99523.00;;;0.29;94.84
30598;BME280;17365;48.878;8.334;2022-12-11T10:43:07;99520.94;;;0.99;92.97
30598;BME280;17365;48.878;8.334;2022-12-11T10:45:33;99529.06;;;0.58;92.75
30598;BME280;17365;48.878;8.334;2022-12-11T10:48:06;99518.03;;;1.15;91.50
30598;BME280;17365;48.878;8.334;2022-12-11T10:50:33;99510.88;;;1.33;90.73
30598;BME280;17365;48.878;8.334;2022-12-11T10:52:59;99520.00;;;0.68;91.04
30598;BME280;17365;48.878;8.334;2022-12-11T10:55:27;99516.91;;;0.51;91.83
30598;BME280;17365;48.878;8.334;2022-12-11T10:58:00;99512.44;;;0.71;92.83
30598;BME280;17365;48.878;8.334;2022-12-11T11:00:37;99510.44;;;0.90;90.37
30598;BME280;17365;48.878;8.334;2022-12-11T11:03:24;99506.25;;;0.92;90.73
30598;BME280;17365;48.878;8.334;2022-12-11T11:06:14;99499.09;;;1.08;89.44
30598;BME280;17365;48.878;8.334;2022-12-11T11:08:45;99496.63;;;1.11;88.35
30598;BME280;17365;48.878;8.334;2022-12-11T11:11:32;99494.78;;;0.79;89.38
30598;BME280;17365;48.878;8.334;2022-12-11T11:14:19;99500.81;;;0.81;88.47
30598;BME280;17365;48.878;8.334;2022-12-11T11:16:46;99487.78;;;1.00;88.79
30598;BME280;17365;48.878;8.334;2022-12-11T11:19:19;99493.69;;;0.71;88.81
30598;BME280;17365;48.878;8.334;2022-12-11T11:21:51;99489.59;;;0.49;89.32
30598;BME280;17365;48.878;8.334;2022-12-11T11:24:32;99490.84;;;0.62;89.44
30598;BME280;17365;48.878;8.334;2022-12-11T11:26:59;99484.06;;;0.91;88.49
30598;BME280;17365;48.878;8.334;2022-12-11T11:29:28;99490.41;;;0.75;88.01
30598;BME280;17365;48.878;8.334;2022-12-11T11:31:55;99484.94;;;0.36;89.53
30598;BME280;17365;48.878;8.334;2022-12-11T11:34:20;99486.38;;;0.54;88.97
30598;BME280;17365;48.878;8.334;2022-12-11T11:36:55;99483.63;;;0.75;88.21
30598;BME280;17365;48.878;8.334;2022-12-11T11:39:26;99483.13;;;0.58;88.94
30598;BME280;17365;48.878;8.334;2022-12-11T11:42:14;99485.06;;;0.67;88.02
30598;BME280;17365;48.878;8.334;2022-12-11T11:44:52;99485.69;;;0.87;88.06
30598;BME280;17365;48.878;8.334;2022-12-11T11:47:26;99477.88;;;0.82;87.06
30598;BME280;17365;48.878;8.334;2022-12-11T11:50:21;99478.59;;;0.78;87.89
30598;BME280;17365;48.878;8.334;2022-12-11T11:52:56;99478.69;;;0.80;88.21
30598;BME280;17365;48.878;8.334;2022-12-11T11:57:57;99472.63;;;0.78;87.19
30598;BME280;17365;48.878;8.334;2022-12-11T12:00:26;99475.78;;;0.69;87.45
30598;BME280;17365;48.878;8.334;2022-12-11T12:02:59;99467.16;;;0.66;87.16
30598;BME280;17365;48.878;8.334;2022-12-11T12:05:34;99469.53;;;1.16;86.15
30598;BME280;17365;48.878;8.334;2022-12-11T12:08:12;99470.47;;;1.50;85.06
30598;BME280;17365;48.878;8.334;2022-12-11T12:10:57;99458.09;;;1.65;83.80
30598;BME280;17365;48.878;8.334;2022-12-11T12:16:03;99456.09;;;1.54;84.24
30598;BME280;17365;48.878;8.334;2022-12-11T12:21:33;99452.75;;;1.89;82.97
30598;BME280;17365;48.878;8.334;2022-12-11T12:26:36;99461.53;;;1.04;85.10
30598;BME280;17365;48.878;8.334;2022-12-11T12:29:32;99457.03;;;1.57;84.15
30598;BME280;17365;48.878;8.334;2022-12-11T12:35:26;99444.75;;;1.75;82.58
30598;BME280;17365;48.878;8.334;2022-12-11T12:38:49;99441.25;;;1.10;83.29
30598;BME280;17365;48.878;8.334;2022-12-11T12:44:12;99436.75;;;1.63;83.67
30598;BME280;17365;48.878;8.334;2022-12-11T12:46:52;99439.00;;;1.51;83.37
30598;BME280;17365;48.878;8.334;2022-12-11T12:51:57;99432.72;;;1.40;84.99
30598;BME280;17365;48.878;8.334;2022-12-11T12:54:25;99436.09;;;1.09;85.70
30598;BME280;17365;48.878;8.334;2022-12-11T12:56:52;99434.38;;;1.38;85.78
30598;BME280;17365;48.878;8.334;2022-12-11T12:59:23;99434.09;;;1.27;85.46
30598;BME280;17365;48.878;8.334;2022-12-11T13:01:53;99438.19;;;0.92;86.97
30598;BME280;17365;48.878;8.334;2022-12-11T13:04:41;99435.78;;;1.27;85.67
30598;BME280;17365;48.878;8.334;2022-12-11T13:07:17;99437.97;;;1.46;85.14
30598;BME280;17365;48.878;8.334;2022-12-11T13:10:07;99437.19;;;1.17;85.66
30598;BME280;17365;48.878;8.334;2022-12-11T13:12:47;99438.38;;;1.28;85.40
30598;BME280;17365;48.878;8.334;2022-12-11T13:17:52;99438.72;;;1.42;85.46
30598;BME280;17365;48.878;8.334;2022-12-11T13:20:21;99432.16;;;1.83;84.17
30598;BME280;17365;48.878;8.334;2022-12-11T13:25:27;99434.22;;;2.32;82.98
30598;BME280;17365;48.878;8.334;2022-12-11T13:28:04;99434.53;;;1.75;81.92
30598;BME280;17365;48.878;8.334;2022-12-11T13:30:30;99439.03;;;1.23;84.53
30598;BME280;17365;48.878;8.334;2022-12-11T13:33:04;99435.84;;;1.30;83.87
30598;BME280;17365;48.878;8.334;2022-12-11T13:35:31;99438.13;;;1.21;84.91
30598;BME280;17365;48.878;8.334;2022-12-11T13:38:18;99449.84;;;0.84;85.51
30598;BME280;17365;48.878;8.334;2022-12-11T13:40:51;99450.28;;;0.99;86.30
30598;BME280;17365;48.878;8.334;2022-12-11T13:43:19;99448.78;;;1.06;85.47
30598;BME280;17365;48.878;8.334;2022-12-11T13:45:49;99444.19;;;0.94;85.48
30598;BME280;17365;48.878;8.334;2022-12-11T13:48:27;99451.91;;;0.96;85.97
30598;BME280;17365;48.878;8.334;2022-12-11T13:50:56;99446.75;;;0.94;86.26
30598;BME280;17365;48.878;8.334;2022-12-11T13:53:22;99456.00;;;0.91;86.04
30598;BME280;17365;48.878;8.334;2022-12-11T13:56:04;99452.03;;;1.30;85.46
30598;BME280;17365;48.878;8.334;2022-12-11T13:58:34;99453.19;;;1.41;85.39
30598;BME280;17365;48.878;8.334;2022-12-11T14:01:20;99450.97;;;1.54;84.73
30598;BME280;17365;48.878;8.334;2022-12-11T14:03:57;99456.91;;;1.53;83.44
30598;BME280;17365;48.878;8.334;2022-12-11T14:06:24;99462.16;;;1.90;83.31
30598;BME280;17365;48.878;8.334;2022-12-11T14:08:53;99470.59;;;1.86;82.98
30598;BME280;17365;48.878;8.334;2022-12-11T14:11:40;99466.06;;;1.76;81.88
30598;BME280;17365;48.878;8.334;2022-12-11T14:14:20;99465.91;;;1.70;82.09
30598;BME280;17365;48.878;8.334;2022-12-11T14:16:50;99463.78;;;1.55;82.97
30598;BME280;17365;48.878;8.334;2022-12-11T14:19:18;99467.44;;;1.63;83.51